• Join FlightAware (Why Join?)
  • Login
  • US Flag 
Rudolph Flight #1: Arrived! 
12:35AM EST


 

Airport Tracker/Info


-or-


 

Live Flight TrackerFlight Track Log ✈ N8932U ✈ 10-Jul-2014 ✈ KOWB - KLAL

Flight Track Log - Related Links

Times and Time Zones

All times are in EDT time to prevent confusion due to time zone crossing. See the N8932U flight status page for this flight to view local times or setup timezone preferences in your user account.

Time Position Orientation Groundspeed Altitude Reporting Facility
EDT Latitude Longitude Course Direction KTS MPH feet Rate Location/Type
08:02AM 37.7225 -87.1333 146° Southeast 121 139 2,500  Level Indianapolis Center
08:03AM 37.6947 -87.1161 154° Southeast 112 129 3,400 780 Climbing Indianapolis Center
08:04AM 37.6667 -87.0936 148° Southeast 113 130 4,200 720 Climbing Indianapolis Center
08:05AM 37.6369 -87.0672 145° Southeast 125 144 5,000 780 Climbing Indianapolis Center
08:06AM 37.7297 -87.1591 146° Southeast  Level FlightAware Approximate
08:06AM 37.6053 -87.0447 151° Southeast 127 146 5,800  Level Indianapolis Center
08:07AM 37.6931 -87.1283 146° Southeast  Level FlightAware Approximate
08:07AM 37.5711 -87.0269 158° South 128 147 6,500  Level Indianapolis Center
08:08AM 37.5386 -87.0056 152° Southeast 129 148 6,900 240 Climbing Indianapolis Center
08:09AM 37.4989 -86.9764 150° Southeast 154 177 7,000  Climbing Indianapolis Center
08:10AM 37.4539 -86.9531 158° South 170 196 6,900  Descending Indianapolis Center
08:11AM 37.4014 -86.9175 152° Southeast 174 200 7,100  Climbing Indianapolis Center
08:12AM 37.3647 -86.8925 152° Southeast 174 200 7,000  Descending Memphis Center
08:13AM 37.3189 -86.8658 155° Southeast 174 200 7,100  Climbing Memphis Center
08:14AM 37.2750 -86.8408 156° South 174 200 7,100  Level Memphis Center
08:15AM 37.2308 -86.8153 155° Southeast 174 200 7,100  Level Memphis Center
08:16AM 37.1858 -86.7900 156° South 174 200 7,100 -60 Level Memphis Center
08:17AM 37.1403 -86.7628 155° Southeast 175 201 7,000  Descending Memphis Center
08:18AM 37.0964 -86.7361 154° Southeast 175 201 7,100  Climbing Memphis Center
08:19AM 37.0525 -86.7128 157° South 173 199 7,100  Level Memphis Center
08:20AM 36.9997 -86.6828 156° South 174 200 7,100  Level Memphis Center
08:21AM 36.9553 -86.6558 154° Southeast 174 200 7,100  Level Memphis Center
08:22AM 36.9108 -86.6314 156° South 174 200 7,100  Level Memphis Center
08:23AM 36.8658 -86.6058 156° South 175 201 7,100  Level Memphis Center
08:24AM 36.8228 -86.5814 156° South 174 200 7,100  Level Memphis Center
08:25AM 36.7781 -86.5572 157° South 173 199 7,100  Level Memphis Center
08:26AM 36.7344 -86.5336 157° South 173 199 7,100  Level Memphis Center
08:27AM 36.6906 -86.5106 157° South 172 198 7,100  Level Memphis Center
08:28AM 36.6464 -86.4875 157° South 172 198 7,100  Level Memphis Center
08:29AM 36.6025 -86.4644 157° South 172 198 7,100  Level Memphis Center
08:30AM 36.5519 -86.4364 156° South 170 196 7,100  Level Memphis Center
08:31AM 36.5089 -86.4131 156° South 169 194 7,100  Level Memphis Center
08:32AM 36.4672 -86.3844 151° Southeast 169 194 7,100  Level Memphis Center
08:33AM 36.4253 -86.3564 152° Southeast 169 194 7,100  Level Memphis Center
08:34AM 36.3836 -86.3272 151° Southeast 169 194 7,100  Level Memphis Center
08:35AM 36.3397 -86.3042 157° South 169 194 7,100  Level Memphis Center
08:36AM 36.2958 -86.2789 155° Southeast 169 194 7,100  Level Memphis Center
08:37AM 36.2531 -86.2525 154° Southeast 169 194 7,100  Level Memphis Center
08:38AM 36.2086 -86.2283 156° South 170 196 7,100  Level Memphis Center
08:39AM 36.1650 -86.2003 153° Southeast 172 198 7,100  Level Memphis Center
08:40AM 36.1147 -86.1703 154° Southeast 172 198 7,100  Level Memphis Center
08:41AM 36.0714 -86.1428 153° Southeast 172 198 7,100  Level Memphis Center
08:43AM 36.0289 -86.1161 153° Southeast 172 198 7,100 -60 Level Memphis Center
08:44AM 35.9861 -86.0889 153° Southeast 172 198 7,000  Descending Memphis Center
08:45AM 35.9414 -86.0642 156° South 172 198 7,100  Climbing Memphis Center
08:46AM 35.8983 -86.0392 155° Southeast 172 198 7,100  Level Memphis Center
08:47AM 35.8556 -86.0139 154° Southeast 171 197 7,100  Level Memphis Center
08:48AM 35.8122 -85.9889 155° Southeast 171 197 7,100  Level Memphis Center
08:49AM 35.7622 -85.9606 155° Southeast 171 197 7,100  Level Memphis Center
08:50AM 35.7175 -85.9389 159° South 171 197 7,100  Level Memphis Center
08:51AM 35.6744 -85.9139 155° Southeast 171 197 7,100  Level Memphis Center
08:52AM 35.6303 -85.8897 156° South 171 197 7,100  Level Memphis Center
08:53AM 35.5850 -85.8642 155° Southeast 171 197 7,200  Climbing Memphis Center
08:54AM 35.5422 -85.8389 154° Southeast 170 196 7,200  Level Memphis Center
08:55AM 35.4994 -85.8147 155° Southeast 170 196 7,200  Level Memphis Center
08:56AM 35.4561 -85.7897 155° Southeast 171 197 7,200  Level Memphis Center
08:57AM 35.4125 -85.7667 157° South 171 197 7,200  Level Memphis Center
08:58AM 35.3608 -85.7375 155° Southeast 171 197 7,200  Level Memphis Center
08:59AM 35.3183 -85.7131 155° Southeast 171 197 7,200 -60 Level Memphis Center
09:00AM 35.2747 -85.6867 154° Southeast 171 197 7,100 -60 Descending Memphis Center
09:01AM 35.2319 -85.6608 154° Southeast 171 197 7,100  Level Memphis Center
09:02AM 35.1886 -85.6333 153° Southeast 173 199 7,100  Level Memphis Center
09:03AM 35.1453 -85.6067 153° Southeast 173 199 7,100  Level Memphis Center
09:04AM 35.0947 -85.5767 154° Southeast 173 199 7,100 60 Level Memphis Center
09:05AM 35.0525 -85.5519 154° Southeast 173 199 7,300  Climbing Memphis Center
09:06AM 35.0092 -85.5281 156° South 171 197 7,100 -60 Descending Memphis Center
09:07AM 34.9653 -85.5106 162° South 171 197 7,200  Climbing Memphis Center
09:08AM 34.9200 -85.5117 181° South 164 189 7,100 -120 Descending Memphis Center
09:09AM 34.8639 -85.5067 176° South 167 192 7,000 60 Descending Memphis Center
09:10AM 34.8183 -85.5028 176° South 167 192 7,300 120 Climbing Memphis Center
09:11AM 34.7736 -85.4994 176° South 162 186 7,300  Level Memphis Center
09:13AM 34.7292 -85.4967 177° South 162 186 7,300 -60 Level Memphis Center
09:15AM 34.6247 -85.4903 177° South 159 183 7,200 -60 Descending Atlanta Center
09:16AM 34.5808 -85.4894 179° South 159 183 7,200  Level Atlanta Center
09:17AM 34.5328 -85.4886 179° South 159 183 7,200  Level Atlanta Center
09:18AM 34.4892 -85.4853 176° South 159 183 7,200  Level Atlanta Center
09:19AM 34.4433 -85.4819 177° South 159 183 7,200  Level Atlanta Center
09:20AM 34.3975 -85.4764 174° South 159 183 7,200  Level Atlanta Center
09:21AM 34.3494 -85.4731 177° South 164 189 7,200  Level Atlanta Center
09:22AM 34.3056 -85.4697 176° South 164 189 7,200  Level Atlanta Center
09:23AM 34.2619 -85.4639 174° South 164 189 7,200  Level Atlanta Center
09:24AM 34.2161 -85.4556 171° South 164 189 7,200  Level Atlanta Center
09:25AM 34.1703 -85.4497 174° South 164 189 7,200  Level Atlanta Center
09:26AM 34.1244 -85.4492 179° South 159 183 7,200  Level Atlanta Center
09:27AM 34.0783 -85.4458 177° South 159 183 7,200  Level Atlanta Center
09:28AM 34.0325 -85.4375 171° South 164 189 7,200  Level Atlanta Center
09:29AM 33.9847 -85.4367 179° South 164 189 7,200  Level Atlanta Center
09:30AM 33.9408 -85.4336 177° South 164 189 7,200  Level Atlanta Center
09:31AM 33.8928 -85.4328 179° South 164 189 7,300  Climbing Atlanta Center
09:32AM 33.8406 -85.4294 177° South 164 189 7,300 -60 Level Atlanta Center
09:33AM 33.7969 -85.4261 176° South 171 197 7,200 -60 Descending Atlanta Center
09:34AM 33.7489 -85.4253 179° South 171 197 7,200  Level Atlanta Center
09:35AM 33.7050 -85.4272 182° South 176 203 7,300  Climbing Atlanta Center
09:36AM 33.6572 -85.4214 174° South 176 203 7,200 -120 Descending Atlanta Center
09:37AM 33.6092 -85.4206 179° South 176 203 7,100 -60 Descending Atlanta Center
09:38AM 33.5614 -85.4050 165° South 176 203 7,100  Level Atlanta Center
09:39AM 33.5178 -85.3794 154° Southeast 176 203 7,200  Climbing Atlanta Center
09:40AM 33.4761 -85.3539 153° Southeast 176 203 7,200  Level Atlanta Center
09:41AM 33.4328 -85.3233 150° Southeast 176 203 7,200  Level Atlanta Center
09:42AM 33.3914 -85.2928 148° Southeast 176 203 7,200 -60 Level Atlanta Center
09:43AM 33.3497 -85.2672 153° Southeast 176 203 7,100  Descending Atlanta Center
09:44AM 33.2833 -85.2167 148° Southeast 172 198 7,200  Climbing Atlanta TRACON
09:45AM 33.2333 -85.1833 151° Southeast 175 201 7,200  Level Atlanta TRACON
09:46AM 33.1833 -85.1667 164° South 174 200 7,200  Level Atlanta TRACON
09:48AM 33.1500 -85.1167 129° Southeast 176 203 7,300  Climbing Atlanta TRACON
09:49AM 33.1000 -85.1000 164° South 175 201 7,200 -120 Descending Atlanta TRACON
09:49AM 33.0667 -85.0667 140° Southeast 173 199 7,100 -60 Descending Atlanta TRACON
09:51AM 33.0167 -85.0333 151° Southeast 173 199 7,100  Level Atlanta TRACON
09:52AM 32.9833 -85.0000 140° Southeast 176 203 7,100  Level Atlanta TRACON
09:53AM 32.9500 -84.9500 128° Southeast 173 199 7,200  Climbing Atlanta TRACON
09:55AM 32.8833 -84.8833 140° Southeast 174 200 7,200  Level Atlanta TRACON
09:56AM 32.8500 -84.8333 128° Southeast 175 201 7,200  Level Atlanta TRACON
09:57AM 32.8167 -84.8000 140° Southeast 174 200 7,200  Level Atlanta TRACON
09:58AM 32.7833 -84.7500 128° Southeast 177 204 7,200  Level Atlanta TRACON
09:59AM 32.7167 -84.6833 140° Southeast 174 200 7,200  Level Atlanta TRACON
10:00AM 32.6833 -84.6333 128° Southeast 175 201 7,200  Level Atlanta TRACON
10:01AM 32.6500 -84.6000 140° Southeast 174 200 7,200  Level Atlanta TRACON
10:02AM 32.6167 -84.5500 128° Southeast 173 199 7,200 -60 Level Atlanta TRACON
10:03AM 32.5833 -84.5167 140° Southeast 174 200 7,100 -60 Descending Atlanta TRACON
10:04AM 32.5500 -84.4833 140° Southeast 170 196 7,100  Level Atlanta TRACON
10:05AM 32.5000 -84.4667 164° South 169 194 7,200  Climbing Atlanta TRACON
10:07AM 32.4500 -84.4167 140° Southeast 168 193 7,200  Level Atlanta TRACON
10:07AM 32.4333 -84.3833 121° Southeast 170 196 7,200  Level Atlanta TRACON
10:08AM 32.4000 -84.3667 157° South 169 194 7,200 -60 Level Atlanta TRACON
10:09AM 32.3500 -84.3333 151° Southeast 171 197 7,100 -60 Descending Atlanta TRACON
10:10AM 32.3167 -84.3000 140° Southeast 171 197 7,100  Level Atlanta TRACON
10:12AM 32.2656 -84.2561 144° Southeast 173 199 7,200  Climbing Jacksonville Center
10:14AM 32.1806 -84.2083 155° Southeast 168 193 7,200  Level Jacksonville Center
10:15AM 32.1369 -84.1856 156° South 168 193 7,200  Level Jacksonville Center
10:16AM 32.0956 -84.1628 155° Southeast 168 193 7,200 -60 Level Jacksonville Center
10:17AM 32.0517 -84.1428 159° South 168 193 7,100 -60 Descending Jacksonville Center
10:18AM 32.0081 -84.1225 158° South 168 193 7,100  Level Jacksonville Center
10:19AM 31.9667 -84.1022 157° South 168 193 7,200  Climbing Jacksonville Center
10:20AM 31.9250 -84.0797 155° Southeast 168 193 7,200  Level Jacksonville Center
10:21AM 31.8814 -84.0572 156° South 168 193 7,200  Level Jacksonville Center
10:22AM 31.8400 -84.0347 155° Southeast 168 193 7,200 -60 Level Jacksonville Center
10:23AM 31.7983 -84.0097 153° Southeast 168 193 7,100  Descending Jacksonville Center
10:25AM 31.7153 -83.9622 154° Southeast 168 193 7,200  Climbing Jacksonville Center
10:26AM 31.6736 -83.9397 155° Southeast 168 193 7,200  Level Jacksonville Center
10:27AM 31.6322 -83.9150 153° Southeast 168 193 7,300 -60 Climbing Jacksonville Center
10:28AM 31.5864 -83.8950 160° South 168 193 7,100 -120 Descending Jacksonville Center
10:29AM 31.5447 -83.8700 153° Southeast 168 193 7,100  Level Jacksonville Center
10:29AM 31.5344 -83.8675 168° South 170 196 7,100 -120 Level Jacksonville Center
10:30AM 31.5031 -83.8478 152° Southeast 168 193 7,000  Descending Jacksonville Center
10:30AM 31.4928 -83.8428 157° South 169 194 7,100 180 Climbing Jacksonville Center
10:31AM 31.4617 -83.8231 152° Southeast 168 193 7,200  Climbing Jacksonville Center
10:31AM 31.4511 -83.8181 158° South 167 192 7,100  Descending Jacksonville Center
10:32AM 31.4181 -83.8006 156° South 173 199 7,200  Climbing Jacksonville Center
10:32AM 31.4075 -83.7956 158° South 167 192 7,100  Descending Jacksonville Center
10:33AM 31.3783 -83.7758 150° Southeast 173 199 7,200  Climbing Jacksonville Center
10:33AM 31.3681 -83.7733 168° South 168 193 7,100 -120 Descending Jacksonville Center
10:34AM 31.3347 -83.7511 150° Southeast 173 199 7,100  Level Jacksonville Center
10:35AM 31.2931 -83.7242 151° Southeast 173 199 7,100  Level Jacksonville Center
10:35AM 31.2828 -83.7214 167° South 169 194 7,100 600 Level Jacksonville Center
10:37AM 31.2203 -83.6797 150° Southeast 153 176 8,300 720 Climbing Jacksonville Center
10:37AM 31.2078 -83.6747 161° South 125 144 8,600 660 Climbing Jacksonville Center
10:38AM 31.1869 -83.6600 149° Southeast 140 161 9,000 480 Climbing Jacksonville Center
10:38AM 31.1767 -83.6575 168° South 130 150 9,100 120 Climbing Jacksonville Center
10:39AM 31.1350 -83.6353 155° Southeast 159 183 9,200  Climbing Jacksonville Center
10:40AM 31.0956 -83.6108 152° Southeast 171 197 9,200 -60 Level Jacksonville Center
10:41AM 31.0517 -83.5861 154° Southeast 172 198 9,100 -60 Descending Jacksonville Center
10:42AM 31.0081 -83.5639 156° South 172 198 9,100  Level Jacksonville Center
10:43AM 30.9644 -83.5419 157° South 170 196 9,200  Climbing Jacksonville Center
10:44AM 30.9186 -83.5172 155° Southeast 172 198 9,200  Level Jacksonville Center
10:45AM 30.8853 -83.4953 151° Southeast 168 193 9,200  Level Jacksonville Center
10:45AM 30.8769 -83.4953 180° South 170 196 9,200  Level Jacksonville Center
10:46AM 30.8331 -83.4708 154° Southeast 168 193 9,200  Level Jacksonville Center
10:47AM 30.8081 -83.4536 149° Southeast 176 203 9,200  Level Jacksonville Center
10:49AM 30.7292 -83.3928 146° Southeast 176 203 9,300  Climbing Jacksonville Center
10:51AM 30.6500 -83.3319 147° Southeast 171 197 9,200 -60 Descending Jacksonville Center
10:52AM 30.6083 -83.3028 149° Southeast 166 191 9,200  Level Jacksonville Center
10:53AM 30.5644 -83.2786 155° Southeast 166 191 9,200  Level Jacksonville Center
10:54AM 30.5269 -83.2494 146° Southeast 166 191 9,200  Level Jacksonville Center
10:56AM 30.4519 -83.1744 139° Southeast 171 197 9,200 -60 Level Jacksonville Center
10:57AM 30.4167 -83.1383 139° Southeast 176 203 9,100 -60 Descending Jacksonville Center
10:58AM 30.3792 -83.1019 140° Southeast 176 203 9,100  Level Jacksonville Center
10:59AM 30.3394 -83.0731 148° Southeast 176 203 9,100  Level Jacksonville Center
11:00AM 30.3019 -83.0417 144° Southeast 171 197 9,200  Climbing Jacksonville Center
11:01AM 30.2664 -83.0081 141° Southeast 171 197 9,200  Level Jacksonville Center
11:02AM 30.2289 -82.9767 144° Southeast 171 197 9,300 300 Climbing Jacksonville Center
11:03AM 30.1914 -82.9550 153° Southeast 163 188 9,900 540 Climbing Jacksonville Center
11:04AM 30.1581 -82.9383 157° South 148 170 10,400 480 Climbing Jacksonville Center
11:05AM 30.1244 -82.9214 156° South 138 159 10,900 300 Climbing Jacksonville Center
11:06AM 30.0869 -82.9069 162° South 133 153 11,100 60 Climbing Jacksonville Center
11:07AM 30.0453 -82.8903 161° South 138 159 11,100 -60 Level Jacksonville Center
11:08AM 29.9992 -82.8758 165° South 160 184 11,000 -60 Descending Jacksonville Center
11:09AM 29.9556 -82.8589 161° South 165 190 11,000 -60 Level Jacksonville Center
11:10AM 29.9178 -82.8328 149° Southeast 159 183 10,900  Descending Jacksonville Center
11:11AM 29.8864 -82.7919 132° Southeast 164 189 11,100  Climbing Jacksonville Center
11:12AM 29.8553 -82.7536 133° Southeast 170 196 11,000 -120 Descending Jacksonville Center
11:13AM 29.8239 -82.7153 133° Southeast 170 196 10,900 -60 Descending Jacksonville Center
11:14AM 29.7925 -82.6772 134° Southeast 170 196 10,900  Level Jacksonville Center
11:15AM 29.7653 -82.6414 131° Southeast 165 190 10,900  Level Jacksonville Center
11:16AM 29.7317 -82.6103 141° Southeast 165 190 11,000  Climbing Jacksonville Center
11:17AM 29.6878 -82.5842 153° Southeast 165 190 11,000 -60 Level Jacksonville Center
11:18AM 29.6419 -82.5700 165° South 160 184 10,900 -240 Descending Jacksonville Center
11:19AM 29.6106 -82.5628 169° South 161 185 10,600 -420 Descending Jacksonville Center
11:19AM 29.6022 -82.5558 144° Southeast 159 183 10,500 -660 Descending Jacksonville Center
11:20AM 29.5625 -82.5439 165° South 183 211 9,900 -600 Descending Jacksonville Center
11:20AM 29.5542 -82.5369 144° Southeast 169 194 9,900 -720 Level Jacksonville Center
11:21AM 29.5164 -82.5250 165° South 181 208 9,200 -840 Descending Jacksonville Center
11:23AM 29.4467 -82.4925 158° South  Level FlightAware Approximate
11:30AM 29.1509 -82.3551 158° South  Level FlightAware Approximate
11:31AM 29.1087 -82.3355 158° South  Level FlightAware Approximate
11:32AM 29.0664 -82.3160 158° South  Level FlightAware Approximate
11:33AM 29.0241 -82.2964 158° South  Level FlightAware Approximate
11:34AM 28.9818 -82.2769 158° South  Level FlightAware Approximate
11:35AM 28.9396 -82.2574 158° South  Level FlightAware Approximate
11:36AM 28.8973 -82.2379 158° South  Level FlightAware Approximate
11:37AM 28.8550 -82.2185 158° South  Level FlightAware Approximate
11:38AM 28.8127 -82.1990 158° South  Level FlightAware Approximate
11:39AM 28.7704 -82.1796 158° South  Level FlightAware Approximate
11:40AM 28.7281 -82.1601 158° South  Level FlightAware Approximate
11:41AM 28.6858 -82.1407 158° South  Level FlightAware Approximate
11:42AM 28.6435 -82.1214 158° South  Level FlightAware Approximate
11:43AM 28.5977 -82.1107 172° South  Level FlightAware Approximate
11:44AM 28.5526 -82.1032 172° South  Level FlightAware Approximate
11:45AM 28.5074 -82.0965 173° South  Level FlightAware Approximate
11:46AM 28.4621 -82.0905 173° South  Level FlightAware Approximate
11:47AM 28.4168 -82.0844 173° South  Level FlightAware Approximate
11:48AM 28.3716 -82.0784 173° South  Level FlightAware Approximate
11:49AM 28.3263 -82.0724 173° South  Level FlightAware Approximate
11:50AM 28.2811 -82.0660 166° South  Level FlightAware Approximate
11:51AM 28.2369 -82.0534 166° South  Level FlightAware Approximate
11:52AM 28.1926 -82.0407 166° South  Level FlightAware Approximate
11:53AM 28.1480 -82.0307 173° South  Level FlightAware Approximate
11:54AM 28.1028 -82.0242 173° South  Level FlightAware Approximate
11:55AM 28.0575 -82.0177 173° South  Level FlightAware Approximate
11:56AM 28.0120 -82.0167 180° South  Level FlightAware Approximate
11:57AM 27.9833 -82.0167 180° South  Level FlightAware Approximate
11:58AM 27.9889 -82.0186 41° Northeast  Level Estimated
11:59AM 27.9833 -82.0167 180° South  Level FlightAware Approximate
12:00PM 27.9889 -82.0186 41° Northeast  Level Estimated
12:01PM 27.9833 -82.0167 180° South  Level FlightAware Approximate
12:02PM 27.9889 -82.0186 41° Northeast  Level Estimated
12:03PM 27.9833 -82.0167 180° South  Level FlightAware Approximate
12:04PM 27.9889 -82.0186 41° Northeast  Level Estimated
12:05PM 27.9833 -82.0167 180° South  Level FlightAware Approximate